Time;durP1;ratioP1;P1;durP2;ratioP2;P2;SDS_P1;SDS_P2;PMS_P1;PMS_P2;Temp;Humidity;BMP_temperature;BMP_pressure;BME280_temperature;BME280_humidity;BME280_pressure;Samples;Min_cycle;Max_cycle;Signal;HPM_P1;HPM_P2
2021/07/15 00:01:36;;;;;;;36.33;23.23;;;20.20;99.90;;;;;;5024288;28;20014;-71
2021/07/15 00:04:02;;;;;;;37.17;24.33;;;20.20;99.90;;;;;;5028753;28;20029;-71
2021/07/15 00:06:28;;;;;;;32.47;22.40;;;20.20;99.90;;;;;;5020224;28;20026;-71
2021/07/15 00:08:56;;;;;;;33.63;22.52;;;20.30;99.90;;;;;;5027321;28;20082;-71
2021/07/15 00:11:25;;;;;;;26.85;18.85;;;20.30;99.90;;;;;;5025077;28;21428;-71
2021/07/15 00:13:51;;;;;;;34.97;22.20;;;20.20;99.90;;;;;;5023079;28;20033;-71
2021/07/15 00:16:17;;;;;;;34.25;22.77;;;20.20;99.90;;;;;;5021032;28;20512;-72
2021/07/15 00:18:45;;;;;;;30.95;21.23;;;20.20;99.90;;;;;;5026544;28;20053;-73
2021/07/15 00:21:14;;;;;;;33.47;22.17;;;20.20;99.90;;;;;;5028693;28;20109;-71
2021/07/15 00:23:40;;;;;;;31.88;21.50;;;20.30;99.90;;;;;;5028818;28;20018;-72
2021/07/15 00:26:07;;;;;;;29.25;20.90;;;20.30;99.90;;;;;;5023385;28;20037;-71
2021/07/15 00:28:43;;;;;;;25.92;19.30;;;20.30;99.90;;;;;;5022872;28;20088;-71
2021/07/15 00:31:10;;;;;;;27.77;18.52;;;20.30;99.90;;;;;;5023385;28;20030;-74
2021/07/15 00:33:36;;;;;;;28.48;19.77;;;20.30;99.90;;;;;;5028243;28;21033;-71
2021/07/15 00:36:03;;;;;;;42.90;22.60;;;20.30;99.90;;;;;;5031701;28;20025;-73
2021/07/15 00:38:29;;;;;;;37.03;22.20;;;20.40;99.90;;;;;;5028563;28;20068;-73
2021/07/15 00:40:55;;;;;;;42.20;23.92;;;20.30;99.90;;;;;;5031739;28;20052;-72
2021/07/15 00:43:21;;;;;;;37.88;24.95;;;20.30;99.90;;;;;;5032849;28;20065;-72
2021/07/15 00:45:47;;;;;;;41.72;23.73;;;20.30;99.90;;;;;;5033080;28;20374;-72
2021/07/15 00:48:13;;;;;;;37.38;23.60;;;20.30;99.90;;;;;;5044255;28;20022;-72
2021/07/15 00:50:39;;;;;;;33.15;22.40;;;20.20;99.90;;;;;;5033134;28;20032;-72
2021/07/15 00:53:06;;;;;;;35.80;23.85;;;20.30;99.90;;;;;;5033039;28;20481;-72
2021/07/15 00:55:38;;;;;;;32.38;22.02;;;20.30;99.90;;;;;;5032294;28;20032;-72
2021/07/15 00:58:05;;;;;;;29.70;20.92;;;20.30;99.90;;;;;;5031327;28;20017;-71
2021/07/15 01:00:32;;;;;;;32.20;22.20;;;20.30;99.90;;;;;;5027535;28;20028;-71
2021/07/15 01:02:58;;;;;;;27.17;19.92;;;20.40;99.90;;;;;;5031155;28;20139;-72
2021/07/15 01:05:33;;;;;;;31.08;20.63;;;20.30;99.90;;;;;;5032703;28;20144;-72
2021/07/15 01:07:59;;;;;;;30.05;20.95;;;20.30;99.90;;;;;;5029919;28;20029;-72
2021/07/15 01:10:33;;;;;;;26.42;19.70;;;20.30;99.90;;;;;;5031439;28;20022;-71
2021/07/15 01:13:08;;;;;;;25.92;18.77;;;20.30;99.90;;;;;;5033038;28;20014;-71
2021/07/15 01:16:05;;;;;;;25.50;18.80;;;20.30;99.90;;;;;;5030311;28;20505;-74
2021/07/15 01:18:55;;;;;;;25.80;17.90;;;20.30;99.90;;;;;;5031376;28;20018;-70
2021/07/15 01:21:51;;;;;;;20.10;15.13;;;20.30;99.90;;;;;;5031812;28;20040;-71
2021/07/15 01:24:25;;;;;;;20.77;15.27;;;20.30;99.90;;;;;;5026552;28;20049;-71
2021/07/15 01:27:12;;;;;;;21.08;14.05;;;20.20;99.90;;;;;;5028884;28;20092;-71
2021/07/15 01:29:59;;;;;;;15.07;12.95;;;20.30;99.90;;;;;;5024682;28;20109;-73
2021/07/15 01:32:32;;;;;;;18.00;13.30;;;20.30;99.90;;;;;;5030790;28;20048;-82
2021/07/15 01:35:01;;;;;;;;;;;20.30;99.90;;;;;;5024727;28;20076;-85
2021/07/15 01:37:29;;;;;;;15.05;11.30;;;20.30;99.90;;;;;;5026519;28;19905;-74
2021/07/15 01:39:57;;;;;;;14.43;10.60;;;20.30;99.90;;;;;;5031088;28;20045;-73
2021/07/15 01:42:25;;;;;;;14.65;10.98;;;20.30;99.90;;;;;;5028069;28;20017;-83
2021/07/15 01:44:54;;;;;;;12.52;10.82;;;20.20;99.90;;;;;;5030860;28;20539;-76
2021/07/15 01:47:21;;;;;;;17.67;12.30;;;20.20;99.90;;;;;;5026504;28;20022;-82
2021/07/15 01:49:47;;;;;;;14.73;10.65;;;20.20;99.90;;;;;;5028776;28;20025;-83
2021/07/15 01:52:15;;;;;;;13.68;11.75;;;20.20;99.90;;;;;;5031642;28;20104;-83
2021/07/15 01:54:42;;;;;;;14.07;11.93;;;20.20;99.90;;;;;;5022871;28;20029;-84
2021/07/15 01:57:09;;;;;;;25.75;11.77;;;20.20;99.90;;;;;;5031584;28;20036;-77
2021/07/15 01:59:37;;;;;;;13.75;10.52;;;20.20;99.90;;;;;;5028902;28;20017;-78
2021/07/15 02:02:05;;;;;;;12.13;10.10;;;20.20;99.90;;;;;;5032354;28;20112;-82
2021/07/15 02:04:32;;;;;;;13.90;11.18;;;20.10;99.90;;;;;;5031225;28;20108;-84
2021/07/15 02:07:01;;;;;;;12.23;9.55;;;20.10;99.90;;;;;;5029150;28;20060;-83
2021/07/15 02:09:27;;;;;;;11.63;8.98;;;20.10;99.90;;;;;;5031957;28;20036;-78
2021/07/15 02:11:54;;;;;;;12.43;9.25;;;20.10;99.90;;;;;;5034090;28;20030;-84
2021/07/15 02:14:22;;;;;;;12.80;9.40;;;20.10;99.90;;;;;;5026947;28;20026;-75
2021/07/15 02:16:51;;;;;;;12.15;9.50;;;20.10;99.90;;;;;;5027751;28;20064;-72
2021/07/15 02:19:19;;;;;;;11.93;9.02;;;20.10;99.90;;;;;;5026765;28;20378;-79
2021/07/15 02:21:46;;;;;;;12.00;9.40;;;20.10;99.90;;;;;;5028505;28;20026;-75
2021/07/15 02:24:15;;;;;;;12.05;8.75;;;20.20;99.90;;;;;;5029766;28;20404;-79
2021/07/15 02:26:43;;;;;;;12.90;9.10;;;20.20;99.90;;;;;;5016679;28;20051;-73
2021/07/15 02:29:08;;;;;;;11.45;9.00;;;20.30;99.90;;;;;;5032283;28;20535;-72
2021/07/15 02:31:43;;;;;;;10.93;8.20;;;20.20;99.90;;;;;;5032244;28;20022;-71
2021/07/15 02:34:15;;;;;;;10.18;9.07;;;20.30;99.90;;;;;;5030572;28;20029;-71
2021/07/15 02:36:41;;;;;;;13.65;9.52;;;20.30;99.90;;;;;;5031751;28;20037;-74
2021/07/15 02:39:09;;;;;;;17.15;10.63;;;20.20;99.90;;;;;;5030586;28;20044;-73
2021/07/15 02:41:36;;;;;;;14.18;10.18;;;20.20;99.90;;;;;;5031914;28;20071;-71
2021/07/15 02:44:01;;;;;;;15.35;10.80;;;20.10;99.90;;;;;;5031653;28;20116;-72
2021/07/15 02:46:28;;;;;;;20.55;11.45;;;20.20;99.90;;;;;;5023301;28;20120;-73
2021/07/15 02:48:54;;;;;;;16.00;12.05;;;20.20;99.90;;;;;;5029105;28;20021;-71
2021/07/15 02:51:19;;;;;;;13.20;11.38;;;20.20;99.90;;;;;;5030796;28;20021;-73
2021/07/15 02:53:45;;;;;;;16.90;12.43;;;20.20;99.90;;;;;;5021309;28;20035;-71
2021/07/15 02:56:43;;;;;;;13.85;10.65;;;20.20;99.90;;;;;;5026945;28;20462;-71
2021/07/15 02:59:23;;;;;;;12.25;10.25;;;20.20;99.90;;;;;;5021496;28;20053;-74
2021/07/15 03:01:51;;;;;;;11.15;9.43;;;20.20;99.90;;;;;;5029788;28;20017;-70
2021/07/15 03:04:27;;;;;;;11.13;9.88;;;20.20;99.90;;;;;;5030030;28;20362;-71
2021/07/15 03:06:54;;;;;;;11.70;9.80;;;20.20;99.90;;;;;;5020451;28;20018;-71
2021/07/15 03:09:25;;;;;;;11.23;9.55;;;20.20;99.90;;;;;;5031449;28;20033;-72
2021/07/15 03:12:09;;;;;;;14.45;10.77;;;20.20;99.90;;;;;;5030622;28;20072;-71
2021/07/15 03:14:38;;;;;;;11.63;9.13;;;20.20;99.90;;;;;;5030257;28;20039;-71
2021/07/15 03:17:08;;;;;;;13.18;10.38;;;20.20;99.90;;;;;;5023124;28;20079;-72
2021/07/15 03:19:36;;;;;;;13.23;10.27;;;20.20;99.90;;;;;;5030209;28;20029;-72
2021/07/15 03:22:05;;;;;;;13.05;9.60;;;20.10;99.90;;;;;;5030617;28;20120;-72
2021/07/15 03:24:42;;;;;;;14.20;10.00;;;20.10;99.90;;;;;;5028205;28;20029;-71
2021/07/15 03:27:09;;;;;;;11.80;8.52;;;20.20;99.90;;;;;;5026706;28;20028;-72
2021/07/15 03:29:37;;;;;;;11.43;9.75;;;20.10;99.90;;;;;;5029104;28;20026;-72
2021/07/15 03:32:05;;;;;;;14.32;10.30;;;20.10;99.90;;;;;;5026256;28;20064;-70
2021/07/15 03:34:35;;;;;;;12.93;9.70;;;20.10;99.90;;;;;;5028506;28;20067;-70
2021/07/15 03:37:01;;;;;;;14.80;10.75;;;20.10;99.90;;;;;;5030096;28;20026;-71
2021/07/15 03:39:28;;;;;;;14.57;10.32;;;20.00;99.90;;;;;;5028759;28;20025;-71
2021/07/15 03:41:54;;;;;;;17.00;11.20;;;20.00;99.90;;;;;;5030842;28;20028;-71
2021/07/15 03:44:21;;;;;;;12.20;10.93;;;20.10;99.90;;;;;;5030496;28;20076;-71
2021/07/15 03:46:49;;;;;;;14.45;11.07;;;20.10;99.90;;;;;;5025431;28;20036;-71
2021/07/15 03:49:19;;;;;;;14.60;12.20;;;20.00;99.90;;;;;;5027853;28;20021;-71
2021/07/15 03:51:45;;;;;;;15.45;12.82;;;20.10;99.90;;;;;;5020369;28;20080;-71
2021/07/15 03:54:13;;;;;;;17.25;12.82;;;20.10;99.90;;;;;;5028980;28;20034;-72
2021/07/15 03:56:42;;;;;;;19.88;13.50;;;20.10;99.90;;;;;;5025842;28;20014;-71
2021/07/15 03:59:08;;;;;;;20.75;14.70;;;20.10;99.90;;;;;;5033126;28;20649;-70
2021/07/15 04:01:35;;;;;;;23.20;15.77;;;20.10;99.90;;;;;;5034836;28;20084;-71
2021/07/15 04:04:06;;;;;;;16.35;12.00;;;20.00;99.90;;;;;;5031583;28;20041;-71
2021/07/15 04:06:34;;;;;;;21.10;14.05;;;20.10;99.90;;;;;;5027555;28;20028;-71
2021/07/15 04:09:01;;;;;;;24.83;17.17;;;20.00;99.90;;;;;;5033431;28;20474;-71
2021/07/15 04:11:28;;;;;;;27.88;16.85;;;20.10;99.90;;;;;;5031312;28;20024;-71
2021/07/15 04:13:55;;;;;;;24.65;16.67;;;20.20;99.90;;;;;;5031444;28;20026;-70
2021/07/15 04:16:45;;;;;;;23.02;16.67;;;20.10;99.90;;;;;;5033952;28;20022;-70
2021/07/15 04:19:12;;;;;;;19.20;13.57;;;20.20;99.90;;;;;;5034542;28;20480;-71
2021/07/15 04:21:40;;;;;;;23.30;15.27;;;20.10;99.90;;;;;;5035203;28;20021;-73
2021/07/15 04:24:07;;;;;;;24.45;15.57;;;20.10;99.90;;;;;;5033759;28;20041;-71
2021/07/15 04:26:34;;;;;;;24.25;16.23;;;20.10;99.90;;;;;;5043930;28;20021;-76
2021/07/15 04:29:01;;;;;;;24.38;16.20;;;20.00;99.90;;;;;;5049156;28;20025;-73
2021/07/15 04:31:58;;;;;;;20.20;14.43;;;20.00;99.90;;;;;;5033560;28;20014;-72
2021/07/15 04:34:27;;;;;;;24.80;18.88;;;20.10;99.90;;;;;;5028885;28;20018;-71
2021/07/15 04:36:54;;;;;;;28.42;19.23;;;20.10;99.90;;;;;;5030542;28;20033;-71
2021/07/15 04:39:23;;;;;;;26.92;18.50;;;20.10;99.90;;;;;;5031951;28;20025;-70
2021/07/15 04:41:49;;;;;;;25.50;16.75;;;20.10;99.90;;;;;;5034049;28;20029;-70
2021/07/15 04:44:15;;;;;;;23.50;16.08;;;20.10;99.90;;;;;;5026573;28;20052;-71
2021/07/15 04:46:42;;;;;;;23.52;17.67;;;20.10;99.90;;;;;;5029096;28;20478;-71
2021/07/15 04:49:08;;;;;;;24.52;16.63;;;20.10;99.90;;;;;;5032540;28;20029;-71
2021/07/15 04:51:40;;;;;;;20.15;13.68;;;20.10;99.90;;;;;;5033319;28;20017;-72
2021/07/15 04:54:07;;;;;;;20.45;14.25;;;20.00;99.90;;;;;;5033530;28;20030;-71
2021/07/15 04:56:33;;;;;;;18.65;14.60;;;20.00;99.90;;;;;;5029369;28;20029;-71
2021/07/15 04:59:01;;;;;;;15.73;12.50;;;20.10;99.90;;;;;;5030274;28;20025;-72
2021/07/15 05:01:26;;;;;;;23.88;13.40;;;20.10;99.90;;;;;;5029228;28;20444;-71
2021/07/15 05:03:52;;;;;;;19.42;12.77;;;20.10;99.90;;;;;;5032509;28;20441;-71
2021/07/15 05:06:19;;;;;;;14.25;11.95;;;20.20;99.90;;;;;;5033461;28;20026;-70
2021/07/15 05:08:45;;;;;;;15.70;10.73;;;20.10;99.90;;;;;;5030411;28;20232;-70
2021/07/15 05:11:12;;;;;;;13.40;10.63;;;20.10;99.90;;;;;;5032614;28;20553;-71
2021/07/15 05:13:39;;;;;;;13.55;10.60;;;20.10;99.90;;;;;;5026770;28;20083;-71
2021/07/15 05:16:05;;;;;;;12.60;9.57;;;20.20;99.90;;;;;;5031883;28;20017;-71
2021/07/15 05:18:32;;;;;;;12.18;9.38;;;20.20;99.90;;;;;;5033995;28;20025;-72
2021/07/15 05:20:58;;;;;;;14.48;10.38;;;20.30;99.90;;;;;;5029392;28;20096;-71
2021/07/15 05:23:23;;;;;;;10.30;8.35;;;20.20;99.90;;;;;;5024948;28;20454;-73
2021/07/15 05:25:51;;;;;;;10.77;8.45;;;20.10;99.90;;;;;;5030633;28;20037;-73
2021/07/15 05:28:17;;;;;;;12.82;9.13;;;20.20;99.90;;;;;;5027218;28;20013;-71
2021/07/15 05:30:43;;;;;;;10.82;8.70;;;20.20;99.90;;;;;;5027317;28;20033;-71
2021/07/15 05:33:10;;;;;;;13.50;10.05;;;20.30;99.90;;;;;;5032637;28;20044;-72
2021/07/15 05:35:35;;;;;;;10.55;9.25;;;20.30;99.90;;;;;;5027806;28;20072;-75
2021/07/15 05:38:04;;;;;;;14.25;10.50;;;20.30;99.90;;;;;;5031527;28;20022;-83
2021/07/15 05:40:31;;;;;;;14.48;11.35;;;20.30;99.90;;;;;;5029726;28;20021;-71
2021/07/15 05:42:57;;;;;;;17.48;11.23;;;20.20;99.90;;;;;;5028031;28;21768;-70
2021/07/15 05:45:23;;;;;;;12.65;9.73;;;20.20;99.90;;;;;;5028873;28;20044;-71
2021/07/15 05:47:48;;;;;;;12.38;9.90;;;20.20;99.90;;;;;;5026178;28;20477;-71
2021/07/15 05:50:14;;;;;;;12.93;10.52;;;20.20;99.90;;;;;;5032420;28;20025;-71
2021/07/15 05:52:40;;;;;;;13.07;10.43;;;20.30;99.90;;;;;;5025179;28;20551;-80
2021/07/15 05:55:07;;;;;;;12.77;10.32;;;20.20;99.90;;;;;;5031493;28;20021;-82
2021/07/15 05:57:33;;;;;;;12.35;10.65;;;20.20;99.90;;;;;;5027406;28;20024;-82
2021/07/15 06:00:00;;;;;;;17.77;11.07;;;20.10;99.90;;;;;;5030608;28;20383;-85
2021/07/15 06:02:26;;;;;;;13.73;10.25;;;20.00;99.90;;;;;;5026487;28;20048;-84
2021/07/15 06:04:52;;;;;;;14.27;10.23;;;20.00;99.90;;;;;;5031194;28;20377;-84
2021/07/15 06:07:18;;;;;;;15.73;10.02;;;19.90;99.90;;;;;;5029147;28;20021;-84
2021/07/15 06:09:43;;;;;;;15.48;11.18;;;20.00;99.90;;;;;;5025693;28;20079;-82
2021/07/15 06:12:10;;;;;;;13.70;10.32;;;20.00;99.90;;;;;;5026358;28;20032;-81
2021/07/15 06:14:36;;;;;;;20.50;10.93;;;20.10;99.90;;;;;;5029868;28;20123;-80
2021/07/15 06:17:03;;;;;;;12.98;9.63;;;20.00;99.90;;;;;;5032510;28;20025;-78
2021/07/15 06:19:29;;;;;;;16.13;10.80;;;20.10;99.90;;;;;;5028915;28;20041;-85
2021/07/15 06:21:55;;;;;;;16.50;10.85;;;20.00;99.90;;;;;;5029893;28;20017;-86
2021/07/15 06:24:21;;;;;;;13.20;10.25;;;20.00;99.90;;;;;;5030622;28;20060;-83
2021/07/15 06:26:48;;;;;;;21.42;11.05;;;20.00;99.90;;;;;;5028283;28;20021;-83
2021/07/15 06:29:14;;;;;;;12.32;9.63;;;20.00;99.90;;;;;;5033852;28;20021;-81
2021/07/15 06:31:40;;;;;;;12.23;9.57;;;20.00;99.90;;;;;;5033188;28;20013;-84
2021/07/15 06:34:06;;;;;;;13.90;9.48;;;20.10;99.90;;;;;;5031450;28;20068;-80
2021/07/15 06:36:32;;;;;;;11.93;9.05;;;20.10;99.90;;;;;;5028184;28;20017;-70
2021/07/15 06:38:59;;;;;;;12.32;9.18;;;20.10;99.90;;;;;;5026438;28;20104;-77
2021/07/15 06:41:25;;;;;;;14.20;9.55;;;20.10;99.90;;;;;;5031814;28;20025;-70
2021/07/15 06:43:51;;;;;;;12.98;9.38;;;20.10;99.90;;;;;;5031919;28;20021;-80
2021/07/15 06:46:17;;;;;;;15.43;10.25;;;20.10;99.90;;;;;;5027590;28;20497;-81
2021/07/15 06:48:43;;;;;;;11.93;8.82;;;20.10;99.90;;;;;;5028114;28;20059;-70
2021/07/15 06:51:09;;;;;;;12.20;9.85;;;20.20;99.90;;;;;;5030619;28;20426;-70
2021/07/15 06:53:35;;;;;;;9.05;7.40;;;20.20;99.90;;;;;;5024741;28;20021;-72
2021/07/15 06:56:01;;;;;;;8.45;6.32;;;20.20;99.90;;;;;;5031192;28;20017;-74
2021/07/15 06:58:28;;;;;;;7.93;7.10;;;20.20;99.90;;;;;;5031433;28;20524;-71
2021/07/15 07:00:57;;;;;;;9.40;7.28;;;20.10;99.90;;;;;;5027925;28;20049;-69
2021/07/15 07:03:23;;;;;;;8.23;5.60;;;20.10;99.90;;;;;;5028001;28;20080;-71
2021/07/15 07:05:53;;;;;;;6.32;5.05;;;20.10;99.90;;;;;;5030038;28;20025;-73
2021/07/15 07:08:19;;;;;;;6.07;5.25;;;20.10;99.90;;;;;;5025695;28;20026;-71
2021/07/15 07:10:45;;;;;;;7.50;6.00;;;20.10;99.90;;;;;;5026256;28;20051;-70
2021/07/15 07:13:10;;;;;;;9.32;6.32;;;20.10;99.90;;;;;;5028278;28;20465;-70
2021/07/15 07:15:36;;;;;;;5.85;5.25;;;20.20;99.90;;;;;;5028598;28;20018;-71
2021/07/15 07:18:02;;;;;;;9.25;7.00;;;20.20;99.90;;;;;;5030859;28;20025;-70
2021/07/15 07:20:28;;;;;;;9.68;6.93;;;20.20;99.90;;;;;;5025544;28;20037;-70
2021/07/15 07:22:53;;;;;;;10.52;7.53;;;20.10;99.90;;;;;;5028352;28;22041;-72
2021/07/15 07:25:19;;;;;;;8.25;7.38;;;20.00;99.90;;;;;;5021783;28;20030;-72
2021/07/15 07:27:45;;;;;;;11.95;8.57;;;20.00;99.90;;;;;;5028043;28;20017;-78
2021/07/15 07:30:14;;;;;;;11.75;9.35;;;20.00;99.90;;;;;;5027093;28;20029;-76
2021/07/15 07:32:41;;;;;;;14.60;9.23;;;20.10;99.90;;;;;;5028708;28;20859;-70
2021/07/15 07:35:07;;;;;;;9.90;8.68;;;20.10;99.90;;;;;;5022585;28;20025;-75
2021/07/15 07:37:33;;;;;;;11.98;9.23;;;20.10;99.90;;;;;;5027307;28;20489;-72
2021/07/15 07:40:00;;;;;;;12.90;9.82;;;20.00;99.90;;;;;;5028869;28;20022;-74
2021/07/15 07:42:26;;;;;;;13.45;10.93;;;20.10;99.90;;;;;;4997538;28;20021;-70
2021/07/15 07:44:51;;;;;;;14.95;11.13;;;20.10;99.90;;;;;;5022105;28;20397;-70
2021/07/15 07:47:17;;;;;;;15.18;9.77;;;20.10;99.90;;;;;;5025185;28;20076;-72
2021/07/15 07:49:43;;;;;;;16.38;12.35;;;20.20;99.90;;;;;;5025379;28;20032;-71
2021/07/15 07:52:09;;;;;;;14.63;10.43;;;20.20;99.90;;;;;;5030658;28;20033;-70
2021/07/15 07:54:34;;;;;;;13.32;10.55;;;20.20;99.90;;;;;;5025953;28;20563;-70
2021/07/15 07:57:00;;;;;;;15.35;10.75;;;20.20;99.90;;;;;;5025352;28;20052;-71
2021/07/15 07:59:26;;;;;;;17.17;11.75;;;20.20;99.90;;;;;;5026566;28;20057;-71
2021/07/15 08:01:52;;;;;;;15.55;11.70;;;20.10;99.90;;;;;;5027953;28;20770;-70
2021/07/15 08:04:18;;;;;;;15.02;11.30;;;20.20;99.90;;;;;;5027490;28;20029;-70
2021/07/15 08:06:45;;;;;;;17.10;12.98;;;20.20;99.90;;;;;;5025794;28;20091;-71
2021/07/15 08:09:12;;;;;;;14.55;11.30;;;20.20;99.90;;;;;;5025869;28;20034;-72
2021/07/15 08:11:40;;;;;;;16.88;12.90;;;20.20;99.90;;;;;;5026739;28;20025;-73
2021/07/15 08:14:06;;;;;;;19.15;12.98;;;20.20;99.90;;;;;;5029658;28;20092;-74
2021/07/15 08:16:32;;;;;;;18.40;13.65;;;20.30;99.90;;;;;;5027809;28;20116;-76
2021/07/15 08:18:58;;;;;;;15.55;11.13;;;20.30;99.90;;;;;;5024657;28;20022;-77
2021/07/15 08:21:25;;;;;;;16.65;11.98;;;20.30;99.90;;;;;;5025093;28;20030;-76
2021/07/15 08:23:51;;;;;;;17.90;12.10;;;20.30;99.90;;;;;;5028448;28;20029;-77
2021/07/15 08:26:17;;;;;;;16.88;11.57;;;20.30;99.90;;;;;;5028332;28;20029;-74
2021/07/15 08:28:43;;;;;;;14.38;11.27;;;20.30;99.90;;;;;;5026245;28;20017;-71
2021/07/15 08:31:09;;;;;;;11.10;8.98;;;20.30;99.90;;;;;;5020349;28;20044;-79
2021/07/15 08:33:34;;;;;;;13.80;10.35;;;20.40;99.90;;;;;;5029506;28;20026;-78
2021/07/15 08:36:00;;;;;;;11.48;8.98;;;20.40;99.90;;;;;;5020990;28;20025;-79
2021/07/15 08:38:26;;;;;;;12.60;9.35;;;20.40;99.90;;;;;;5026481;28;20053;-74
2021/07/15 08:40:52;;;;;;;12.90;9.05;;;20.50;99.90;;;;;;5028550;28;20029;-74
2021/07/15 08:43:18;;;;;;;9.15;8.18;;;20.50;99.90;;;;;;5028584;28;20022;-75
2021/07/15 08:45:45;;;;;;;10.00;6.93;;;20.40;99.90;;;;;;5028439;28;20120;-73
2021/07/15 08:48:12;;;;;;;12.50;9.48;;;20.40;99.90;;;;;;5033120;28;20021;-70
2021/07/15 08:50:39;;;;;;;9.68;8.57;;;20.40;99.90;;;;;;5025818;28;20036;-71
2021/07/15 08:53:04;;;;;;;12.52;9.48;;;20.40;99.90;;;;;;5032889;28;20026;-71
2021/07/15 08:58:29;;;;;;;9.80;8.80;;;20.40;99.90;;;;;;5020463;28;20029;-72
2021/07/15 09:00:55;;;;;;;10.48;9.02;;;20.50;99.90;;;;;;5027699;28;20359;-72
2021/07/15 09:03:20;;;;;;;10.48;8.95;;;20.40;99.90;;;;;;5030868;28;20028;-72
2021/07/15 09:05:46;;;;;;;11.38;9.05;;;20.50;99.90;;;;;;5031365;28;20146;-72
2021/07/15 09:08:13;;;;;;;11.68;8.55;;;20.40;99.90;;;;;;5029738;28;20029;-72
2021/07/15 09:10:40;;;;;;;14.07;10.05;;;20.40;99.90;;;;;;5027336;28;20385;-72
2021/07/15 09:13:06;;;;;;;14.15;9.93;;;20.40;99.90;;;;;;5027770;28;20033;-74
2021/07/15 09:15:32;;;;;;;12.48;9.85;;;20.30;99.90;;;;;;5025651;28;20030;-72
2021/07/15 09:17:57;;;;;;;10.80;9.27;;;20.30;99.90;;;;;;5027341;28;20211;-72
2021/07/15 09:20:27;;;;;;;13.48;9.90;;;20.30;99.90;;;;;;5028340;28;20108;-73
2021/07/15 09:22:59;;;;;;;13.68;10.02;;;20.30;99.90;;;;;;5020090;28;21090;-71
2021/07/15 09:25:25;;;;;;;13.77;10.27;;;20.40;99.90;;;;;;5015931;28;20045;-73
2021/07/15 09:27:51;;;;;;;19.27;11.45;;;20.40;99.90;;;;;;5023673;28;20661;-76
2021/07/15 09:30:17;;;;;;;16.42;10.02;;;20.40;99.90;;;;;;5029715;28;20021;-71
2021/07/15 09:33:00;;;;;;;13.07;9.65;;;20.40;99.90;;;;;;5028404;28;20075;-76
2021/07/15 09:35:34;;;;;;;12.02;10.40;;;20.30;99.90;;;;;;5030374;28;20363;-72
2021/07/15 09:38:20;;;;;;;16.42;11.60;;;20.30;99.90;;;;;;5026947;28;20026;-73
2021/07/15 09:40:57;;;;;;;21.10;12.98;;;20.30;99.90;;;;;;5022784;28;20024;-78
2021/07/15 09:43:38;;;;;;;17.65;12.45;;;20.30;99.90;;;;;;5026531;28;20018;-75
2021/07/15 09:46:13;;;;;;;17.30;13.05;;;20.30;99.90;;;;;;5027842;28;20025;-76
2021/07/15 09:49:04;;;;;;;16.75;11.70;;;20.40;99.90;;;;;;5024068;28;20034;-75
2021/07/15 09:51:41;;;;;;;15.13;11.20;;;20.40;99.90;;;;;;5023398;28;20439;-76
2021/07/15 09:54:07;;;;;;;15.57;11.10;;;20.40;99.90;;;;;;5026792;28;20057;-71
2021/07/15 09:56:44;;;;;;;14.77;10.00;;;20.40;99.90;;;;;;5025468;28;20092;-71
2021/07/15 09:59:10;;;;;;;9.48;8.45;;;20.40;99.90;;;;;;4995274;28;20071;-74
2021/07/15 10:01:46;;;;;;;11.05;7.55;;;20.40;99.90;;;;;;5003976;28;20029;-71
2021/07/15 10:04:13;;;;;;;10.57;7.43;;;20.40;99.90;;;;;;5021149;28;20029;-71
2021/07/15 10:06:46;;;;;;;8.02;6.78;;;20.40;99.90;;;;;;5026528;28;20029;-72
2021/07/15 10:09:27;;;;;;;9.70;6.78;;;20.40;99.90;;;;;;5027286;28;20029;-71
2021/07/15 10:11:56;;;;;;;7.45;6.53;;;20.40;99.90;;;;;;5023480;28;20627;-70
2021/07/15 10:14:34;;;;;;;8.20;6.63;;;20.40;99.90;;;;;;5024948;28;20062;-71
2021/07/15 10:16:59;;;;;;;10.07;7.10;;;20.40;99.90;;;;;;5021367;28;20037;-71
2021/07/15 10:19:25;;;;;;;12.10;8.30;;;20.40;99.90;;;;;;5028398;28;20101;-71
2021/07/15 10:22:03;;;;;;;10.05;7.85;;;20.40;99.90;;;;;;5029044;28;20033;-70
2021/07/15 10:24:29;;;;;;;11.90;7.68;;;20.40;99.90;;;;;;5026987;28;20042;-71
2021/07/15 10:27:03;;;;;;;10.57;8.25;;;20.40;99.90;;;;;;5022398;28;20076;-70
2021/07/15 10:29:30;;;;;;;11.65;8.73;;;20.30;99.90;;;;;;5028419;28;20013;-71
2021/07/15 10:31:56;;;;;;;12.60;9.82;;;20.30;99.90;;;;;;5027164;28;20932;-70
2021/07/15 10:34:22;;;;;;;13.35;9.05;;;20.20;99.90;;;;;;5024853;28;20118;-70
2021/07/15 10:36:53;;;;;;;19.33;10.90;;;20.10;99.90;;;;;;5016715;28;20049;-71
2021/07/15 10:39:19;;;;;;;17.05;10.00;;;20.10;99.90;;;;;;5026479;28;20485;-72
2021/07/15 10:41:50;;;;;;;18.23;11.45;;;20.10;99.90;;;;;;5024684;28;20044;-72
2021/07/15 10:44:16;;;;;;;13.30;10.55;;;20.20;99.90;;;;;;5027279;28;20037;-72
2021/07/15 10:46:42;;;;;;;18.00;12.02;;;20.20;99.90;;;;;;5024738;28;20042;-71
2021/07/15 10:49:09;;;;;;;18.25;13.07;;;20.20;99.90;;;;;;5024193;28;20033;-73
2021/07/15 10:51:39;;;;;;;17.33;13.27;;;20.20;99.90;;;;;;5021622;28;20040;-73
2021/07/15 10:54:06;;;;;;;18.92;12.98;;;20.20;99.90;;;;;;5022221;28;20036;-73
2021/07/15 10:56:32;;;;;;;22.58;14.23;;;20.20;99.90;;;;;;5021823;28;20030;-73
2021/07/15 10:58:58;;;;;;;20.80;14.30;;;20.20;99.90;;;;;;5021212;28;20511;-73
2021/07/15 11:01:37;;;;;;;20.10;13.85;;;20.30;99.90;;;;;;5021637;28;20061;-73
2021/07/15 11:04:18;;;;;;;18.95;14.38;;;20.30;99.90;;;;;;5022550;28;20044;-74
2021/07/15 11:06:49;;;;;;;21.58;15.50;;;20.30;99.90;;;;;;5025476;28;20029;-73
2021/07/15 11:09:23;;;;;;;24.58;16.35;;;20.20;99.90;;;;;;5029649;28;20116;-76
2021/07/15 11:11:51;;;;;;;24.65;16.58;;;20.20;99.90;;;;;;5026441;28;20049;-74
2021/07/15 11:14:41;;;;;;;25.75;16.58;;;20.20;99.90;;;;;;5022271;28;20037;-73
2021/07/15 11:17:29;;;;;;;17.83;14.88;;;20.20;99.90;;;;;;5025481;28;20109;-72
2021/07/15 11:20:02;;;;;;;25.17;15.50;;;20.20;99.90;;;;;;5028972;28;20036;-72
2021/07/15 11:22:39;;;;;;;22.33;15.93;;;20.20;99.90;;;;;;5023035;28;20026;-72
2021/07/15 11:25:13;;;;;;;21.83;14.35;;;20.20;99.90;;;;;;5025667;28;20112;-72
2021/07/15 11:27:49;;;;;;;16.83;14.52;;;20.30;99.90;;;;;;5027127;28;20019;-73
2021/07/15 11:30:27;;;;;;;22.65;15.63;;;20.30;99.90;;;;;;5022683;28;20397;-70
2021/07/15 11:32:54;;;;;;;23.17;13.95;;;20.40;99.90;;;;;;5037049;28;20026;-73
2021/07/15 11:35:32;;;;;;;24.80;15.57;;;20.40;99.90;;;;;;5024138;28;20390;-71
2021/07/15 11:38:12;;;;;;;20.02;14.07;;;20.40;99.90;;;;;;5025951;28;20017;-73
2021/07/15 11:40:42;;;;;;;19.83;15.25;;;20.30;99.90;;;;;;5028522;28;20108;-71
2021/07/15 11:43:26;;;;;;;22.25;14.70;;;20.30;99.90;;;;;;5025195;28;20056;-70
2021/07/15 11:46:02;;;;;;;19.23;15.68;;;20.30;99.90;;;;;;5039215;28;20072;-71
2021/07/15 11:48:50;;;;;;;25.52;16.13;;;20.20;99.90;;;;;;5022771;28;20021;-71
2021/07/15 11:51:30;;;;;;;25.30;17.67;;;20.20;99.90;;;;;;5023388;28;20067;-70
2021/07/15 11:54:21;;;;;;;22.50;15.30;;;20.20;99.90;;;;;;5026544;28;20014;-70
2021/07/15 11:56:53;;;;;;;19.45;15.15;;;20.20;99.90;;;;;;5025794;28;20099;-71
2021/07/15 11:59:38;;;;;;;21.03;14.47;;;20.20;99.90;;;;;;5022925;28;20031;-71
2021/07/15 12:02:08;;;;;;;21.60;13.23;;;20.20;99.90;;;;;;5023688;28;20021;-70
2021/07/15 12:05:12;;;;;;;16.60;12.32;;;20.20;99.90;;;;;;5027420;28;20037;-71
2021/07/15 12:07:50;;;;;;;16.67;11.27;;;20.10;99.90;;;;;;5022719;28;20036;-70
2021/07/15 12:10:27;;;;;;;20.60;11.98;;;20.10;99.90;;;;;;5023494;28;20798;-70
2021/07/15 12:12:58;;;;;;;16.33;12.30;;;20.10;99.90;;;;;;5020868;28;20104;-80
2021/07/15 12:15:26;;;;;;;17.50;11.98;;;20.20;99.90;;;;;;5019600;28;20026;-69
2021/07/15 12:17:55;;;;;;;14.75;10.82;;;20.10;99.90;;;;;;5026361;28;20037;-70
2021/07/15 12:20:22;;;;;;;13.85;10.50;;;20.10;99.90;;;;;;5033627;28;20112;-70
2021/07/15 12:22:57;;;;;;;19.52;12.27;;;20.00;99.90;;;;;;5028553;28;20145;-71
2021/07/15 12:25:26;;;;;;;22.23;13.38;;;20.00;99.90;;;;;;5012415;28;20152;-71
2021/07/15 12:27:55;;;;;;;16.40;13.13;;;20.00;99.90;;;;;;5024351;28;20458;-70
2021/07/15 12:30:23;;;;;;;19.27;14.23;;;20.00;99.90;;;;;;5024602;28;20256;-70
2021/07/15 12:32:54;;;;;;;21.13;15.98;;;20.00;99.90;;;;;;5032298;28;20053;-70
2021/07/15 12:35:19;;;;;;;24.77;14.68;;;20.00;99.90;;;;;;5026131;28;21107;-71
2021/07/15 12:37:45;;;;;;;25.02;16.08;;;20.10;99.90;;;;;;5022072;28;20109;-71
2021/07/15 12:40:11;;;;;;;29.83;18.90;;;20.00;99.90;;;;;;5030717;28;21193;-72
2021/07/15 12:42:38;;;;;;;26.52;17.40;;;20.00;99.90;;;;;;5025940;28;20021;-75
2021/07/15 12:45:22;;;;;;;35.28;19.55;;;19.90;99.90;;;;;;5022073;28;20602;-75